createdAt,value
2022-12-11T00:01:22.124Z,90.35
2022-12-11T00:03:50.731Z,90.09
2022-12-11T00:06:23.147Z,90.06
2022-12-11T00:08:56.028Z,90.39
2022-12-11T00:11:25.152Z,90.64
2022-12-11T00:13:53.590Z,90.80
2022-12-11T00:16:26.698Z,90.40
2022-12-11T00:18:56.208Z,90.75
2022-12-11T00:21:24.720Z,91.14
2022-12-11T00:23:53.091Z,90.71
2022-12-11T00:26:21.684Z,91.32
2022-12-11T00:28:53.147Z,91.14
2022-12-11T00:31:22.503Z,91.03
2022-12-11T00:33:51.519Z,91.81
2022-12-11T00:36:24.750Z,91.95
2022-12-11T00:38:53.824Z,91.53
2022-12-11T00:41:22.765Z,91.40
2022-12-11T00:43:51.503Z,91.27
2022-12-11T00:46:20.153Z,90.50
2022-12-11T00:48:50.153Z,90.18
2022-12-11T00:51:19.303Z,90.13
2022-12-11T00:53:48.128Z,89.67
2022-12-11T00:56:20.843Z,89.91
2022-12-11T00:58:50.419Z,90.09
2022-12-11T01:01:23.446Z,90.49
2022-12-11T01:03:52.579Z,90.10
2022-12-11T01:06:24.720Z,89.60
2022-12-11T01:09:14.429Z,89.56
2022-12-11T01:11:43.282Z,89.36
2022-12-11T01:14:12.922Z,89.15
2022-12-11T01:16:41.654Z,88.58
2022-12-11T01:19:10.156Z,88.11
2022-12-11T01:21:38.566Z,87.96
2022-12-11T01:24:07.437Z,87.93
2022-12-11T01:26:36.107Z,87.75
2022-12-11T01:29:04.743Z,87.62
2022-12-11T01:31:34.039Z,88.12
2022-12-11T01:34:02.607Z,88.25
2022-12-11T01:36:31.087Z,88.30
2022-12-11T01:38:59.580Z,88.15
2022-12-11T01:41:28.167Z,88.25
2022-12-11T01:44:19.477Z,88.69
2022-12-11T01:46:48.055Z,89.16
2022-12-11T01:49:19.040Z,88.63
2022-12-11T01:52:13.474Z,89.01
2022-12-11T01:54:42.232Z,89.27
2022-12-11T01:57:12.746Z,89.28
2022-12-11T01:59:46.602Z,89.09
2022-12-11T02:02:26.196Z,89.27
2022-12-11T02:04:54.915Z,88.25
2022-12-11T02:07:23.582Z,88.28
2022-12-11T02:09:52.120Z,88.47
2022-12-11T02:13:01.606Z,88.52
2022-12-11T02:16:03.911Z,89.11
2022-12-11T02:19:01.685Z,88.38
2022-12-11T02:22:00.110Z,89.50
2022-12-11T02:24:47.034Z,88.91
2022-12-11T02:27:34.972Z,88.89
2022-12-11T02:30:09.778Z,88.44
2022-12-11T02:33:00.319Z,89.08
2022-12-11T02:35:45.476Z,88.42
2022-12-11T02:38:23.339Z,88.22
2022-12-11T02:40:54.607Z,87.19
2022-12-11T02:43:24.510Z,86.49
2022-12-11T02:45:55.198Z,86.95
2022-12-11T02:48:25.778Z,88.19
2022-12-11T02:50:58.025Z,88.44
2022-12-11T02:53:30.849Z,89.11
2022-12-11T02:56:20.872Z,87.48
2022-12-11T02:59:01.749Z,87.72
2022-12-11T03:01:30.393Z,88.27
2022-12-11T03:03:59.729Z,88.81
2022-12-11T03:06:45.768Z,89.58
2022-12-11T03:09:14.575Z,89.55
2022-12-11T03:11:43.085Z,88.49
2022-12-11T03:14:11.727Z,88.27
2022-12-11T03:16:44.911Z,86.94
2022-12-11T03:19:36.522Z,86.87
2022-12-11T03:22:27.480Z,86.09
2022-12-11T03:25:04.762Z,86.01
2022-12-11T03:27:49.843Z,83.56
2022-12-11T03:30:21.696Z,83.07
2022-12-11T03:33:11.975Z,82.11
2022-12-11T03:35:46.457Z,81.06
2022-12-11T03:38:38.849Z,82.64
2022-12-11T03:41:09.684Z,82.05
2022-12-11T03:43:38.814Z,81.17
2022-12-11T03:46:09.203Z,81.10
2022-12-11T03:48:41.931Z,80.10
2022-12-11T03:51:10.847Z,80.77
2022-12-11T03:53:40.316Z,80.24
2022-12-11T03:56:11.924Z,81.03
2022-12-11T03:58:40.591Z,80.52
2022-12-11T04:01:13.215Z,80.27
2022-12-11T04:03:41.724Z,80.52
2022-12-11T04:06:10.199Z,79.79
2022-12-11T04:08:38.643Z,78.49
2022-12-11T04:11:24.392Z,78.14
2022-12-11T04:14:12.814Z,77.67
2022-12-11T04:16:40.284Z,77.99
2022-12-11T04:19:27.505Z,77.56
2022-12-11T04:22:27.914Z,77.48
2022-12-11T04:24:56.511Z,77.70
2022-12-11T04:27:42.767Z,78.28
2022-12-11T04:30:22.840Z,77.54
2022-12-11T04:32:51.737Z,77.82
2022-12-11T04:35:21.595Z,77.53
2022-12-11T04:37:50.231Z,77.60
2022-12-11T04:40:21.280Z,79.93
2022-12-11T04:42:49.839Z,79.33
2022-12-11T04:45:19.238Z,80.70
2022-12-11T04:47:48.069Z,79.30
2022-12-11T04:50:17.155Z,79.64
2022-12-11T04:52:45.927Z,78.73
2022-12-11T04:55:14.899Z,78.01
2022-12-11T04:57:43.401Z,76.78
2022-12-11T05:00:14.160Z,76.63
2022-12-11T05:02:43.393Z,77.39
2022-12-11T05:05:12.984Z,77.41
2022-12-11T05:07:42.086Z,79.13
2022-12-11T05:10:11.053Z,76.20
2022-12-11T05:12:39.721Z,75.77
2022-12-11T05:15:09.040Z,74.48
2022-12-11T05:17:37.905Z,74.77
2022-12-11T05:20:06.749Z,75.60
2022-12-11T05:22:35.306Z,76.24
2022-12-11T05:25:03.983Z,76.95
2022-12-11T05:27:32.574Z,76.17
2022-12-11T05:30:00.953Z,76.35
2022-12-11T05:32:29.645Z,76.82
2022-12-11T05:34:58.268Z,77.01
2022-12-11T05:37:26.766Z,76.98
2022-12-11T05:39:55.190Z,77.17
2022-12-11T05:42:28.601Z,77.59
2022-12-11T05:44:57.580Z,78.35
2022-12-11T05:47:26.000Z,77.90
2022-12-11T05:49:54.436Z,78.16
2022-12-11T05:52:22.931Z,77.69
2022-12-11T05:54:51.850Z,77.08
2022-12-11T05:57:20.316Z,76.82
2022-12-11T05:59:48.714Z,77.36
2022-12-11T06:02:17.175Z,78.68
2022-12-11T06:04:45.639Z,80.62
2022-12-11T06:07:14.157Z,80.76
2022-12-11T06:09:42.692Z,79.34
2022-12-11T06:12:11.107Z,78.29
2022-12-11T06:14:40.946Z,78.64
2022-12-11T06:17:09.461Z,79.83
2022-12-11T06:19:38.035Z,80.06
2022-12-11T06:22:06.633Z,81.08
2022-12-11T06:24:35.116Z,80.97
2022-12-11T06:27:03.579Z,80.78
2022-12-11T06:29:32.096Z,79.67
2022-12-11T06:32:00.583Z,80.00
2022-12-11T06:34:29.229Z,79.81
2022-12-11T06:36:57.792Z,80.32
2022-12-11T06:39:26.694Z,81.66
2022-12-11T06:41:55.050Z,81.27
2022-12-11T06:44:27.021Z,81.44
2022-12-11T06:46:55.561Z,80.66
2022-12-11T06:49:24.148Z,81.09
2022-12-11T06:51:52.535Z,80.70
2022-12-11T06:54:20.988Z,80.88
2022-12-11T06:56:49.400Z,80.72
2022-12-11T06:59:18.432Z,79.73
2022-12-11T07:01:47.033Z,79.72
2022-12-11T07:04:15.509Z,80.16
2022-12-11T07:06:44.480Z,82.00
2022-12-11T07:09:13.170Z,82.16
2022-12-11T07:11:41.758Z,81.17
2022-12-11T07:14:10.631Z,80.09
2022-12-11T07:16:39.155Z,79.10
2022-12-11T07:19:07.706Z,80.04
2022-12-11T07:21:39.158Z,79.58
2022-12-11T07:24:08.254Z,80.07
2022-12-11T07:26:37.104Z,80.19
2022-12-11T07:29:08.599Z,79.44
2022-12-11T07:31:37.112Z,79.07
2022-12-11T07:34:07.841Z,80.84
2022-12-11T07:36:36.372Z,80.60
2022-12-11T07:39:05.017Z,80.46
2022-12-11T07:41:33.417Z,80.12
2022-12-11T07:44:02.455Z,82.73
2022-12-11T07:46:33.753Z,81.19
2022-12-11T07:49:02.876Z,79.37
2022-12-11T07:51:39.016Z,80.12
2022-12-11T07:54:16.793Z,79.58
2022-12-11T07:56:49.859Z,80.75
2022-12-11T07:59:21.360Z,83.14
2022-12-11T08:01:49.918Z,82.22
2022-12-11T08:04:18.321Z,81.11
2022-12-11T08:06:47.783Z,81.15
2022-12-11T08:09:21.025Z,80.88
2022-12-11T08:11:53.529Z,79.90
2022-12-11T08:14:22.258Z,81.39
2022-12-11T08:16:50.976Z,81.03
2022-12-11T08:19:19.574Z,81.02
2022-12-11T08:21:48.148Z,82.78
2022-12-11T08:24:20.261Z,84.35
2022-12-11T08:26:49.284Z,83.50
2022-12-11T08:29:17.796Z,80.51
2022-12-11T08:31:46.252Z,82.16
2022-12-11T08:34:14.824Z,81.04
2022-12-11T08:36:44.293Z,80.60
2022-12-11T08:39:12.674Z,80.53
2022-12-11T08:41:41.160Z,80.39
2022-12-11T08:44:16.639Z,80.79
2022-12-11T08:46:45.884Z,79.23
2022-12-11T08:49:14.468Z,80.37
2022-12-11T08:51:42.940Z,77.51
2022-12-11T08:54:12.022Z,78.30
2022-12-11T08:56:40.404Z,78.41
2022-12-11T08:59:11.047Z,79.13
2022-12-11T09:01:39.616Z,80.50
2022-12-11T09:04:08.317Z,80.58
2022-12-11T09:06:36.776Z,79.45
2022-12-11T09:09:06.598Z,79.30
2022-12-11T09:11:38.077Z,79.26
2022-12-11T09:14:08.111Z,79.04
2022-12-11T09:16:40.702Z,78.47
2022-12-11T09:19:13.882Z,78.55
2022-12-11T09:21:42.911Z,78.72
2022-12-11T09:24:13.440Z,78.03
2022-12-11T09:26:42.286Z,80.38
2022-12-11T09:29:11.821Z,80.13
2022-12-11T09:31:40.505Z,80.48
2022-12-11T09:34:12.880Z,79.26
2022-12-11T09:36:44.246Z,78.81
2022-12-11T09:39:13.405Z,80.31
2022-12-11T09:42:18.344Z,78.41
2022-12-11T09:45:01.520Z,77.76
2022-12-11T09:47:45.433Z,77.58
2022-12-11T09:50:28.864Z,77.55
2022-12-11T09:53:14.385Z,76.69
2022-12-11T09:55:42.739Z,75.14
2022-12-11T09:58:42.680Z,75.69
2022-12-11T10:01:30.652Z,75.76
2022-12-11T10:04:22.299Z,75.76
2022-12-11T10:07:03.430Z,77.17
2022-12-11T10:10:15.884Z,77.18
2022-12-11T10:13:12.877Z,76.52
2022-12-11T10:16:01.116Z,77.74
2022-12-11T10:18:31.086Z,78.62
2022-12-11T10:20:59.662Z,77.75
2022-12-11T10:23:47.925Z,77.66
2022-12-11T10:26:21.764Z,78.77
2022-12-11T10:28:50.762Z,79.49
2022-12-11T10:31:57.499Z,80.21
2022-12-11T10:34:38.668Z,81.18
2022-12-11T10:37:07.111Z,81.28
2022-12-11T10:39:35.511Z,82.23
2022-12-11T10:42:04.799Z,82.24
2022-12-11T10:44:33.605Z,82.06
2022-12-11T10:47:13.715Z,80.93
2022-12-11T10:49:58.866Z,81.51
2022-12-11T10:52:39.550Z,82.33
2022-12-11T10:55:26.337Z,83.05
2022-12-11T10:58:03.057Z,83.10
2022-12-11T11:00:41.285Z,83.06
2022-12-11T11:03:26.889Z,82.79
2022-12-11T11:06:18.362Z,81.58
2022-12-11T11:08:57.809Z,81.42
2022-12-11T11:11:38.498Z,82.44
2022-12-11T11:14:16.866Z,83.27
2022-12-11T11:16:49.280Z,82.66
2022-12-11T11:19:36.572Z,81.82
2022-12-11T11:22:16.492Z,79.53
2022-12-11T11:24:59.665Z,79.95
2022-12-11T11:28:03.684Z,80.51
2022-12-11T11:30:37.750Z,79.31
2022-12-11T11:33:26.549Z,81.64
2022-12-11T11:36:00.454Z,82.05
2022-12-11T11:38:38.634Z,81.81
2022-12-11T11:41:25.691Z,81.04
2022-12-11T11:44:00.495Z,80.89
2022-12-11T11:46:41.333Z,80.19
2022-12-11T11:49:39.033Z,80.58
2022-12-11T11:52:14.555Z,80.64
2022-12-11T11:55:02.382Z,79.36
2022-12-11T11:57:35.411Z,78.50
2022-12-11T12:00:16.083Z,78.71
2022-12-11T12:02:46.984Z,78.53
2022-12-11T12:05:16.059Z,78.36
2022-12-11T12:07:56.957Z,78.45
2022-12-11T12:10:44.306Z,78.43
2022-12-11T12:13:51.237Z,79.08
2022-12-11T12:17:02.511Z,79.68
2022-12-11T12:20:04.792Z,78.94
2022-12-11T12:22:51.202Z,80.10
2022-12-11T12:25:40.517Z,80.72
2022-12-11T12:28:29.653Z,81.35
2022-12-11T12:31:18.921Z,81.56
2022-12-11T12:34:03.295Z,81.83
2022-12-11T12:37:02.563Z,82.11
2022-12-11T12:40:13.186Z,82.74
2022-12-11T12:42:41.762Z,81.81
2022-12-11T12:45:38.102Z,82.79
2022-12-11T12:48:08.199Z,83.55
2022-12-11T12:50:45.409Z,83.48
2022-12-11T12:53:27.401Z,84.29
2022-12-11T12:55:58.199Z,85.20
2022-12-11T12:58:47.153Z,85.82
2022-12-11T13:01:19.377Z,86.67
2022-12-11T13:04:20.779Z,86.42
2022-12-11T13:06:57.066Z,85.11
2022-12-11T13:09:29.602Z,83.66
2022-12-11T13:11:58.865Z,84.55
2022-12-11T13:14:33.811Z,85.27
2022-12-11T13:17:28.381Z,85.34
2022-12-11T13:20:21.221Z,84.63
2022-12-11T13:23:29.529Z,83.54
2022-12-11T13:26:04.122Z,82.85
2022-12-11T13:28:41.393Z,84.11
2022-12-11T13:31:39.464Z,84.47
2022-12-11T13:34:19.497Z,82.63
2022-12-11T13:36:51.406Z,84.54
2022-12-11T13:39:24.784Z,83.80
2022-12-11T13:42:03.767Z,82.48
2022-12-11T13:44:41.115Z,82.19
2022-12-11T13:47:17.022Z,81.56
2022-12-11T13:49:50.549Z,83.51
2022-12-11T13:52:22.206Z,82.26
2022-12-11T13:54:54.283Z,81.89
2022-12-11T13:57:28.410Z,83.02
2022-12-11T13:59:59.509Z,82.96
2022-12-11T14:02:38.288Z,81.09
2022-12-11T14:05:11.338Z,80.94
2022-12-11T14:07:48.714Z,83.72
2022-12-11T14:10:18.198Z,83.84
2022-12-11T14:13:03.142Z,84.05
2022-12-11T14:15:33.495Z,85.17
2022-12-11T14:18:02.349Z,84.66
2022-12-11T14:20:35.695Z,83.52
2022-12-11T14:23:09.853Z,82.82
2022-12-11T14:25:38.212Z,81.35
2022-12-11T14:28:17.043Z,80.77
2022-12-11T14:30:51.797Z,81.96
2022-12-11T14:33:24.598Z,82.60
2022-12-11T14:35:55.805Z,83.26
2022-12-11T14:38:49.477Z,83.64
2022-12-11T14:41:23.613Z,84.40
2022-12-11T14:43:57.205Z,84.43
2022-12-11T14:46:55.156Z,85.02
2022-12-11T14:49:23.791Z,86.32
2022-12-11T14:51:55.158Z,85.54
2022-12-11T14:54:42.350Z,87.35
2022-12-11T14:57:26.445Z,86.80
2022-12-11T14:59:55.507Z,86.60
2022-12-11T15:02:35.379Z,86.22
2022-12-11T15:05:21.716Z,85.99
2022-12-11T15:08:02.933Z,85.25
2022-12-11T15:11:12.675Z,85.35
2022-12-11T15:14:00.698Z,85.43
2022-12-11T15:16:34.960Z,86.33
2022-12-11T15:19:03.709Z,86.20
2022-12-11T15:21:35.390Z,86.01
2022-12-11T15:24:07.901Z,85.83
2022-12-11T15:26:49.518Z,85.79
2022-12-11T15:29:28.852Z,84.44
2022-12-11T15:32:14.849Z,85.22
2022-12-11T15:34:58.752Z,85.21
2022-12-11T15:37:29.903Z,85.93
2022-12-11T15:40:01.637Z,85.57
2022-12-11T15:42:39.887Z,85.36
2022-12-11T15:45:13.587Z,86.78
2022-12-11T15:47:42.678Z,87.07
2022-12-11T15:50:28.629Z,88.28
2022-12-11T15:52:58.236Z,86.77
2022-12-11T15:55:29.791Z,87.47
2022-12-11T15:58:06.220Z,87.61
2022-12-11T16:00:34.857Z,88.27
2022-12-11T16:03:03.328Z,87.96
2022-12-11T16:05:31.729Z,88.99
2022-12-11T16:08:00.361Z,89.29
2022-12-11T16:10:29.598Z,88.37
2022-12-11T16:12:59.770Z,87.54
2022-12-11T16:15:28.771Z,88.55
2022-12-11T16:18:13.397Z,88.39
2022-12-11T16:20:43.792Z,89.09
2022-12-11T16:23:14.735Z,88.41
2022-12-11T16:25:44.904Z,87.01
2022-12-11T16:28:16.411Z,87.58
2022-12-11T16:30:45.516Z,88.61
2022-12-11T16:33:15.201Z,87.06
2022-12-11T16:35:43.971Z,86.72
2022-12-11T16:38:18.789Z,87.45
2022-12-11T16:40:47.441Z,88.30
2022-12-11T16:43:15.906Z,88.81
2022-12-11T16:45:44.825Z,89.88
2022-12-11T16:48:13.278Z,88.73
2022-12-11T16:50:42.381Z,88.52
2022-12-11T16:53:13.276Z,89.89
2022-12-11T16:55:42.440Z,89.84
2022-12-11T16:58:32.162Z,89.60
2022-12-11T17:01:03.126Z,89.69
2022-12-11T17:03:36.352Z,89.89
2022-12-11T17:06:08.550Z,91.07
2022-12-11T17:08:37.418Z,92.00
2022-12-11T17:11:11.766Z,91.83
2022-12-11T17:13:40.577Z,91.91
2022-12-11T17:16:11.889Z,92.09
2022-12-11T17:18:56.280Z,90.15
2022-12-11T17:21:25.250Z,91.20
2022-12-11T17:23:54.206Z,91.49
2022-12-11T17:26:23.786Z,91.28
2022-12-11T17:28:52.382Z,91.05
2022-12-11T17:31:21.756Z,90.71
2022-12-11T17:33:50.822Z,90.70
2022-12-11T17:36:22.638Z,90.15
2022-12-11T17:38:54.755Z,90.92
2022-12-11T17:41:24.186Z,90.95
2022-12-11T17:43:54.586Z,92.37
2022-12-11T17:46:23.320Z,92.43
2022-12-11T17:48:52.110Z,92.60
2022-12-11T17:51:24.217Z,91.38
2022-12-11T17:53:55.597Z,90.21
2022-12-11T17:56:24.508Z,89.91
2022-12-11T17:58:53.120Z,89.82
2022-12-11T18:01:21.893Z,89.85
2022-12-11T18:03:50.587Z,89.57
2022-12-11T18:06:23.058Z,88.94
2022-12-11T18:08:51.541Z,89.66
2022-12-11T18:11:21.706Z,90.94
2022-12-11T18:13:52.309Z,89.70
2022-12-11T18:16:35.177Z,91.70
2022-12-11T18:19:03.855Z,90.67
2022-12-11T18:21:35.621Z,90.01
2022-12-11T18:24:04.405Z,88.87
2022-12-11T18:26:33.062Z,92.30
2022-12-11T18:29:01.850Z,91.25
2022-12-11T18:31:30.613Z,92.25
2022-12-11T18:33:59.295Z,91.03
2022-12-11T18:36:28.052Z,92.09
2022-12-11T18:38:56.447Z,92.82
2022-12-11T18:41:25.022Z,92.38
2022-12-11T18:43:54.889Z,92.21
2022-12-11T18:46:23.813Z,93.48
2022-12-11T18:48:52.357Z,92.95
2022-12-11T18:51:24.111Z,93.15
2022-12-11T18:53:52.830Z,92.11
2022-12-11T18:56:26.119Z,91.94
2022-12-11T18:58:54.459Z,91.71
2022-12-11T19:01:26.443Z,91.81
2022-12-11T19:04:03.475Z,91.81
2022-12-11T19:06:35.570Z,91.87
2022-12-11T19:09:06.526Z,92.01
2022-12-11T19:11:36.920Z,91.01
2022-12-11T19:14:06.409Z,92.59
2022-12-11T19:16:42.353Z,92.34
2022-12-11T19:19:16.974Z,93.02
2022-12-11T19:21:45.789Z,92.68
2022-12-11T19:24:20.868Z,90.48
2022-12-11T19:26:49.267Z,92.39
2022-12-11T19:29:38.259Z,91.85
2022-12-11T19:32:06.918Z,91.97
2022-12-11T19:34:35.396Z,91.17
2022-12-11T19:37:03.755Z,91.89
2022-12-11T19:39:32.256Z,93.19
2022-12-11T19:42:00.702Z,93.72
2022-12-11T19:44:29.143Z,91.70
2022-12-11T19:46:57.652Z,93.35
2022-12-11T19:49:26.288Z,95.35
2022-12-11T19:51:55.203Z,94.55
2022-12-11T19:54:24.585Z,94.44
2022-12-11T19:56:53.482Z,94.71
2022-12-11T19:59:22.102Z,94.49
2022-12-11T20:01:50.700Z,93.82
2022-12-11T20:04:20.050Z,94.40
2022-12-11T20:06:49.171Z,93.68
2022-12-11T20:09:18.153Z,93.00
2022-12-11T20:11:47.378Z,92.75
2022-12-11T20:14:25.230Z,92.08
2022-12-11T20:17:11.316Z,92.99
2022-12-11T20:19:40.826Z,93.41
2022-12-11T20:22:09.643Z,93.14
2022-12-11T20:24:41.200Z,94.03
2022-12-11T20:27:10.113Z,93.49
2022-12-11T20:29:41.477Z,93.31
2022-12-11T20:32:11.558Z,94.02
2022-12-11T20:34:40.350Z,93.59
2022-12-11T20:37:08.985Z,93.31
2022-12-11T20:39:37.999Z,93.79
2022-12-11T20:42:06.441Z,93.23
2022-12-11T20:44:34.905Z,92.92
2022-12-11T20:47:03.333Z,93.13
2022-12-11T20:49:31.836Z,93.88
2022-12-11T20:52:00.636Z,92.55
2022-12-11T20:54:29.290Z,93.23
2022-12-11T20:56:57.847Z,93.71
2022-12-11T20:59:27.177Z,93.56
2022-12-11T21:01:55.953Z,94.27
2022-12-11T21:04:25.158Z,93.46
2022-12-11T21:06:56.394Z,92.52
2022-12-11T21:09:27.737Z,93.13
2022-12-11T21:12:00.867Z,93.78
2022-12-11T21:14:29.874Z,93.28
2022-12-11T21:16:58.551Z,94.44
2022-12-11T21:19:27.181Z,93.85
2022-12-11T21:21:56.327Z,94.30
2022-12-11T21:24:27.973Z,94.75
2022-12-11T21:26:59.023Z,94.06
2022-12-11T21:29:30.091Z,93.57
2022-12-11T21:31:59.102Z,93.95
2022-12-11T21:34:27.685Z,93.97
2022-12-11T21:36:57.028Z,94.33
2022-12-11T21:39:28.308Z,95.47
2022-12-11T21:41:58.120Z,93.70
2022-12-11T21:47:15.574Z,95.59
2022-12-11T21:49:44.238Z,95.18
2022-12-11T21:52:12.754Z,94.78
2022-12-11T21:54:41.534Z,94.59
2022-12-11T21:57:09.976Z,94.66
2022-12-11T21:59:38.588Z,94.77
2022-12-11T22:02:07.057Z,95.07
2022-12-11T22:04:37.023Z,94.59
2022-12-11T22:07:05.517Z,94.83
2022-12-11T22:09:33.979Z,95.44
2022-12-11T22:12:02.373Z,93.66
2022-12-11T22:14:31.406Z,93.83
2022-12-11T22:17:00.447Z,93.87
2022-12-11T22:19:32.455Z,94.00
2022-12-11T22:22:01.216Z,94.18
2022-12-11T22:24:29.640Z,94.56
2022-12-11T22:26:58.158Z,94.30
2022-12-11T22:29:26.530Z,94.40
2022-12-11T22:31:55.321Z,94.61
2022-12-11T22:34:23.930Z,94.20
2022-12-11T22:36:52.445Z,91.98
2022-12-11T22:39:21.095Z,92.38
2022-12-11T22:41:49.477Z,92.32
2022-12-11T22:44:21.194Z,93.39
2022-12-11T22:46:50.795Z,93.94
2022-12-11T22:49:20.775Z,92.82
2022-12-11T22:51:50.039Z,92.31
2022-12-11T22:54:18.475Z,90.81
2022-12-11T22:56:46.901Z,92.07
2022-12-11T22:59:15.820Z,92.96
2022-12-11T23:01:44.495Z,91.87
2022-12-11T23:04:12.931Z,92.21
2022-12-11T23:06:41.385Z,92.30
2022-12-11T23:09:10.055Z,91.73
2022-12-11T23:11:39.000Z,91.05
2022-12-11T23:14:10.532Z,91.14
2022-12-11T23:16:39.021Z,92.30
2022-12-11T23:19:07.733Z,91.81
2022-12-11T23:21:36.155Z,91.13
2022-12-11T23:24:05.303Z,91.91
2022-12-11T23:26:34.106Z,92.41
2022-12-11T23:29:03.069Z,90.67
2022-12-11T23:31:31.561Z,90.79
2022-12-11T23:34:00.263Z,91.20
2022-12-11T23:36:30.099Z,90.52
2022-12-11T23:38:58.592Z,91.72
2022-12-11T23:41:27.070Z,92.28
2022-12-11T23:43:55.664Z,91.85
2022-12-11T23:46:25.491Z,92.42
2022-12-11T23:48:54.945Z,92.89
2022-12-11T23:51:25.525Z,93.08
2022-12-11T23:53:54.474Z,92.87
2022-12-11T23:56:30.124Z,94.17
2022-12-11T23:58:58.951Z,94.27
